sensor_id;sensor_type;location;lat;lon;timestamp;P1;durP1;ratioP1;P2;durP2;ratioP2
8260;SDS011;64115;50.170;8.242;2022-12-17T15:46:45;8.03;;;5.53;;
8260;SDS011;64115;50.170;8.242;2022-12-17T15:49:12;6.57;;;5.10;;
8260;SDS011;64115;50.170;8.242;2022-12-17T15:51:39;7.07;;;4.30;;
8260;SDS011;64115;50.170;8.242;2022-12-17T15:54:06;6.03;;;4.93;;
8260;SDS011;64115;50.170;8.242;2022-12-17T15:56:32;6.47;;;4.77;;
8260;SDS011;64115;50.170;8.242;2022-12-17T15:59:01;4.33;;;3.67;;
8260;SDS011;64115;50.170;8.242;2022-12-17T16:01:28;4.00;;;3.27;;
8260;SDS011;64115;50.170;8.242;2022-12-17T16:03:56;3.70;;;3.13;;
8260;SDS011;64115;50.170;8.242;2022-12-17T16:06:23;3.00;;;2.40;;
8260;SDS011;64115;50.170;8.242;2022-12-17T16:08:50;3.33;;;2.57;;
8260;SDS011;64115;50.170;8.242;2022-12-17T16:11:17;3.33;;;3.03;;
8260;SDS011;64115;50.170;8.242;2022-12-17T16:13:43;5.10;;;3.00;;
8260;SDS011;64115;50.170;8.242;2022-12-17T16:16:10;3.23;;;2.50;;
8260;SDS011;64115;50.170;8.242;2022-12-17T16:18:37;5.10;;;4.10;;
8260;SDS011;64115;50.170;8.242;2022-12-17T16:21:06;4.73;;;3.90;;
8260;SDS011;64115;50.170;8.242;2022-12-17T16:23:34;3.97;;;3.57;;
8260;SDS011;64115;50.170;8.242;2022-12-17T16:26:02;3.40;;;2.50;;
8260;SDS011;64115;50.170;8.242;2022-12-17T16:28:30;2.83;;;2.33;;
8260;SDS011;64115;50.170;8.242;2022-12-17T16:30:58;2.33;;;1.80;;
8260;SDS011;64115;50.170;8.242;2022-12-17T16:33:26;1.60;;;1.50;;
8260;SDS011;64115;50.170;8.242;2022-12-17T16:35:53;1.00;;;1.00;;
8260;SDS011;64115;50.170;8.242;2022-12-17T16:38:21;1.80;;;1.23;;
8260;SDS011;64115;50.170;8.242;2022-12-17T16:40:48;2.93;;;1.87;;
8260;SDS011;64115;50.170;8.242;2022-12-17T16:43:15;3.00;;;2.20;;
8260;SDS011;64115;50.170;8.242;2022-12-17T16:45:45;5.17;;;3.07;;
8260;SDS011;64115;50.170;8.242;2022-12-17T16:48:13;3.50;;;3.07;;
8260;SDS011;64115;50.170;8.242;2022-12-17T16:50:41;3.37;;;3.07;;
8260;SDS011;64115;50.170;8.242;2022-12-17T16:53:08;3.53;;;3.07;;
8260;SDS011;64115;50.170;8.242;2022-12-17T16:55:39;4.67;;;3.50;;
8260;SDS011;64115;50.170;8.242;2022-12-17T16:58:07;4.40;;;3.87;;
8260;SDS011;64115;50.170;8.242;2022-12-17T17:00:34;4.03;;;3.63;;
8260;SDS011;64115;50.170;8.242;2022-12-17T17:03:02;4.10;;;3.60;;
8260;SDS011;64115;50.170;8.242;2022-12-17T17:05:29;3.43;;;3.13;;
8260;SDS011;64115;50.170;8.242;2022-12-17T17:07:56;4.47;;;2.90;;
8260;SDS011;64115;50.170;8.242;2022-12-17T17:10:23;3.70;;;2.50;;
8260;SDS011;64115;50.170;8.242;2022-12-17T17:12:52;2.53;;;1.90;;
8260;SDS011;64115;50.170;8.242;2022-12-17T17:15:19;2.73;;;2.53;;
8260;SDS011;64115;50.170;8.242;2022-12-17T17:17:47;3.60;;;2.80;;
8260;SDS011;64115;50.170;8.242;2022-12-17T17:20:14;4.50;;;2.83;;
8260;SDS011;64115;50.170;8.242;2022-12-17T17:22:41;3.97;;;3.60;;
8260;SDS011;64115;50.170;8.242;2022-12-17T17:25:08;5.70;;;3.93;;
8260;SDS011;64115;50.170;8.242;2022-12-17T17:27:35;7.20;;;4.20;;
8260;SDS011;64115;50.170;8.242;2022-12-17T17:30:03;4.53;;;3.40;;
8260;SDS011;64115;50.170;8.242;2022-12-17T17:32:31;4.87;;;3.67;;
8260;SDS011;64115;50.170;8.242;2022-12-17T17:34:58;5.27;;;3.57;;
8260;SDS011;64115;50.170;8.242;2022-12-17T17:37:24;5.73;;;3.50;;
8260;SDS011;64115;50.170;8.242;2022-12-17T17:39:51;5.03;;;2.93;;
8260;SDS011;64115;50.170;8.242;2022-12-17T17:42:18;3.80;;;3.40;;
8260;SDS011;64115;50.170;8.242;2022-12-17T17:44:45;3.50;;;2.90;;
8260;SDS011;64115;50.170;8.242;2022-12-17T17:47:14;4.10;;;2.80;;
8260;SDS011;64115;50.170;8.242;2022-12-17T17:49:41;3.90;;;2.63;;
8260;SDS011;64115;50.170;8.242;2022-12-17T17:52:07;3.27;;;2.73;;
8260;SDS011;64115;50.170;8.242;2022-12-17T17:54:34;4.67;;;3.00;;
8260;SDS011;64115;50.170;8.242;2022-12-17T17:57:01;5.33;;;2.60;;
8260;SDS011;64115;50.170;8.242;2022-12-17T17:59:28;2.80;;;2.53;;
8260;SDS011;64115;50.170;8.242;2022-12-17T18:01:55;5.63;;;3.30;;
8260;SDS011;64115;50.170;8.242;2022-12-17T18:04:23;5.97;;;3.27;;
8260;SDS011;64115;50.170;8.242;2022-12-17T18:06:50;4.43;;;3.50;;
8260;SDS011;64115;50.170;8.242;2022-12-17T18:09:16;3.83;;;3.40;;
8260;SDS011;64115;50.170;8.242;2022-12-17T18:11:43;6.10;;;3.50;;
8260;SDS011;64115;50.170;8.242;2022-12-17T18:14:11;5.23;;;3.00;;
8260;SDS011;64115;50.170;8.242;2022-12-17T18:16:38;5.33;;;2.90;;
8260;SDS011;64115;50.170;8.242;2022-12-17T18:19:06;7.77;;;3.50;;
8260;SDS011;64115;50.170;8.242;2022-12-17T18:21:36;4.53;;;3.40;;
8260;SDS011;64115;50.170;8.242;2022-12-17T18:24:04;3.93;;;3.30;;
8260;SDS011;64115;50.170;8.242;2022-12-17T18:26:33;4.60;;;3.13;;
8260;SDS011;64115;50.170;8.242;2022-12-17T18:29:06;5.23;;;3.67;;
8260;SDS011;64115;50.170;8.242;2022-12-17T18:31:33;4.97;;;3.43;;
8260;SDS011;64115;50.170;8.242;2022-12-17T18:34:01;5.37;;;3.67;;
8260;SDS011;64115;50.170;8.242;2022-12-17T18:36:30;4.17;;;2.97;;
8260;SDS011;64115;50.170;8.242;2022-12-17T18:39:00;3.90;;;3.27;;
8260;SDS011;64115;50.170;8.242;2022-12-17T18:41:30;5.20;;;3.63;;
8260;SDS011;64115;50.170;8.242;2022-12-17T18:44:14;6.70;;;5.40;;
8260;SDS011;64115;50.170;8.242;2022-12-17T18:46:42;5.00;;;4.10;;
8260;SDS011;64115;50.170;8.242;2022-12-17T18:49:10;6.03;;;3.90;;
8260;SDS011;64115;50.170;8.242;2022-12-17T18:51:41;6.27;;;4.10;;
8260;SDS011;64115;50.170;8.242;2022-12-17T18:54:12;5.23;;;3.93;;
8260;SDS011;64115;50.170;8.242;2022-12-17T18:56:40;4.70;;;3.57;;
8260;SDS011;64115;50.170;8.242;2022-12-17T18:59:07;6.10;;;3.80;;
8260;SDS011;64115;50.170;8.242;2022-12-17T19:01:36;6.93;;;4.10;;
8260;SDS011;64115;50.170;8.242;2022-12-17T19:04:04;5.20;;;3.67;;
8260;SDS011;64115;50.170;8.242;2022-12-17T19:06:32;8.93;;;3.60;;
8260;SDS011;64115;50.170;8.242;2022-12-17T19:09:01;5.07;;;3.67;;
8260;SDS011;64115;50.170;8.242;2022-12-17T19:11:30;5.23;;;3.73;;
8260;SDS011;64115;50.170;8.242;2022-12-17T19:13:57;4.93;;;3.00;;
8260;SDS011;64115;50.170;8.242;2022-12-17T19:16:25;6.67;;;4.40;;
8260;SDS011;64115;50.170;8.242;2022-12-17T19:18:54;5.83;;;3.37;;
8260;SDS011;64115;50.170;8.242;2022-12-17T19:21:22;5.47;;;3.43;;
8260;SDS011;64115;50.170;8.242;2022-12-17T19:23:53;3.83;;;3.37;;
8260;SDS011;64115;50.170;8.242;2022-12-17T19:26:21;5.90;;;3.13;;
8260;SDS011;64115;50.170;8.242;2022-12-17T19:28:50;5.97;;;3.60;;
8260;SDS011;64115;50.170;8.242;2022-12-17T19:31:19;7.17;;;3.93;;
8260;SDS011;64115;50.170;8.242;2022-12-17T19:33:46;5.77;;;4.10;;
8260;SDS011;64115;50.170;8.242;2022-12-17T19:36:15;4.87;;;3.83;;
8260;SDS011;64115;50.170;8.242;2022-12-17T19:38:43;6.53;;;3.63;;
8260;SDS011;64115;50.170;8.242;2022-12-17T19:41:11;6.33;;;3.90;;
8260;SDS011;64115;50.170;8.242;2022-12-17T19:43:39;6.23;;;3.73;;
8260;SDS011;64115;50.170;8.242;2022-12-17T19:46:09;4.03;;;3.63;;
8260;SDS011;64115;50.170;8.242;2022-12-17T19:48:38;4.10;;;3.67;;
8260;SDS011;64115;50.170;8.242;2022-12-17T19:51:08;4.67;;;4.07;;
8260;SDS011;64115;50.170;8.242;2022-12-17T19:53:37;10.30;;;4.83;;
8260;SDS011;64115;50.170;8.242;2022-12-17T19:56:09;6.03;;;3.90;;
8260;SDS011;64115;50.170;8.242;2022-12-17T19:58:38;6.27;;;5.37;;
8260;SDS011;64115;50.170;8.242;2022-12-17T20:01:05;10.80;;;5.60;;
8260;SDS011;64115;50.170;8.242;2022-12-17T20:03:36;5.63;;;4.67;;
8260;SDS011;64115;50.170;8.242;2022-12-17T20:06:04;7.33;;;5.17;;
8260;SDS011;64115;50.170;8.242;2022-12-17T20:08:32;8.20;;;5.23;;
8260;SDS011;64115;50.170;8.242;2022-12-17T20:10:59;9.10;;;5.90;;
8260;SDS011;64115;50.170;8.242;2022-12-17T20:13:28;7.33;;;5.33;;
8260;SDS011;64115;50.170;8.242;2022-12-17T20:15:58;9.07;;;5.83;;
8260;SDS011;64115;50.170;8.242;2022-12-17T20:18:26;10.57;;;4.77;;
8260;SDS011;64115;50.170;8.242;2022-12-17T20:20:59;10.13;;;5.43;;
8260;SDS011;64115;50.170;8.242;2022-12-17T20:23:30;12.47;;;5.20;;
8260;SDS011;64115;50.170;8.242;2022-12-17T20:26:00;8.30;;;5.90;;
8260;SDS011;64115;50.170;8.242;2022-12-17T20:28:27;4.90;;;3.57;;
8260;SDS011;64115;50.170;8.242;2022-12-17T20:30:54;11.63;;;4.97;;
8260;SDS011;64115;50.170;8.242;2022-12-17T20:33:21;9.50;;;6.27;;
8260;SDS011;64115;50.170;8.242;2022-12-17T20:35:49;8.80;;;5.47;;
8260;SDS011;64115;50.170;8.242;2022-12-17T20:38:17;10.03;;;6.47;;
8260;SDS011;64115;50.170;8.242;2022-12-17T20:40:44;12.07;;;6.57;;
8260;SDS011;64115;50.170;8.242;2022-12-17T20:43:11;9.47;;;6.13;;
8260;SDS011;64115;50.170;8.242;2022-12-17T20:45:45;11.23;;;6.80;;
8260;SDS011;64115;50.170;8.242;2022-12-17T20:48:12;8.40;;;4.77;;
8260;SDS011;64115;50.170;8.242;2022-12-17T20:50:39;8.57;;;5.73;;
8260;SDS011;64115;50.170;8.242;2022-12-17T20:53:08;10.87;;;6.47;;
8260;SDS011;64115;50.170;8.242;2022-12-17T20:55:35;8.17;;;6.07;;
8260;SDS011;64115;50.170;8.242;2022-12-17T20:58:02;10.17;;;6.47;;
8260;SDS011;64115;50.170;8.242;2022-12-17T21:00:29;10.13;;;5.93;;
8260;SDS011;64115;50.170;8.242;2022-12-17T21:02:56;10.37;;;6.67;;
8260;SDS011;64115;50.170;8.242;2022-12-17T21:05:25;11.43;;;7.40;;
8260;SDS011;64115;50.170;8.242;2022-12-17T21:07:52;13.63;;;7.53;;
8260;SDS011;64115;50.170;8.242;2022-12-17T21:10:21;11.27;;;7.43;;
8260;SDS011;64115;50.170;8.242;2022-12-17T21:12:47;13.03;;;8.13;;
8260;SDS011;64115;50.170;8.242;2022-12-17T21:15:32;14.50;;;8.03;;
8260;SDS011;64115;50.170;8.242;2022-12-17T21:17:59;12.17;;;7.80;;
8260;SDS011;64115;50.170;8.242;2022-12-17T21:20:26;15.93;;;8.87;;
8260;SDS011;64115;50.170;8.242;2022-12-17T21:22:52;14.43;;;8.63;;
8260;SDS011;64115;50.170;8.242;2022-12-17T21:25:20;15.97;;;8.63;;
8260;SDS011;64115;50.170;8.242;2022-12-17T21:27:47;17.17;;;9.50;;
8260;SDS011;64115;50.170;8.242;2022-12-17T21:30:14;15.63;;;9.73;;
8260;SDS011;64115;50.170;8.242;2022-12-17T21:32:41;16.70;;;9.47;;
8260;SDS011;64115;50.170;8.242;2022-12-17T21:35:08;15.77;;;8.57;;
8260;SDS011;64115;50.170;8.242;2022-12-17T21:37:35;17.30;;;8.83;;
8260;SDS011;64115;50.170;8.242;2022-12-17T21:40:02;15.23;;;9.47;;
8260;SDS011;64115;50.170;8.242;2022-12-17T21:42:30;15.80;;;8.83;;
8260;SDS011;64115;50.170;8.242;2022-12-17T21:45:15;17.43;;;9.63;;
8260;SDS011;64115;50.170;8.242;2022-12-17T21:47:42;15.00;;;8.23;;
8260;SDS011;64115;50.170;8.242;2022-12-17T21:50:09;12.40;;;7.87;;
8260;SDS011;64115;50.170;8.242;2022-12-17T21:52:35;11.93;;;7.57;;
8260;SDS011;64115;50.170;8.242;2022-12-17T21:55:02;14.53;;;8.47;;
8260;SDS011;64115;50.170;8.242;2022-12-17T21:57:31;12.03;;;8.00;;
8260;SDS011;64115;50.170;8.242;2022-12-17T21:59:58;13.13;;;8.00;;
8260;SDS011;64115;50.170;8.242;2022-12-17T22:02:25;11.63;;;7.73;;
8260;SDS011;64115;50.170;8.242;2022-12-17T22:04:51;15.60;;;8.53;;
8260;SDS011;64115;50.170;8.242;2022-12-17T22:07:18;17.40;;;8.60;;
8260;SDS011;64115;50.170;8.242;2022-12-17T22:09:45;19.73;;;8.87;;
8260;SDS011;64115;50.170;8.242;2022-12-17T22:12:12;14.70;;;8.57;;
8260;SDS011;64115;50.170;8.242;2022-12-17T22:14:57;15.63;;;9.10;;
8260;SDS011;64115;50.170;8.242;2022-12-17T22:17:24;15.97;;;9.67;;
8260;SDS011;64115;50.170;8.242;2022-12-17T22:19:51;16.07;;;9.10;;
8260;SDS011;64115;50.170;8.242;2022-12-17T22:22:18;15.90;;;8.80;;
8260;SDS011;64115;50.170;8.242;2022-12-17T22:24:44;18.03;;;9.37;;
8260;SDS011;64115;50.170;8.242;2022-12-17T22:27:11;18.20;;;9.57;;
8260;SDS011;64115;50.170;8.242;2022-12-17T22:29:38;17.17;;;9.27;;
8260;SDS011;64115;50.170;8.242;2022-12-17T22:32:24;14.07;;;8.70;;
8260;SDS011;64115;50.170;8.242;2022-12-17T22:35:14;13.87;;;8.47;;
8260;SDS011;64115;50.170;8.242;2022-12-17T22:37:41;14.23;;;9.00;;
8260;SDS011;64115;50.170;8.242;2022-12-17T22:40:08;14.67;;;8.47;;
8260;SDS011;64115;50.170;8.242;2022-12-17T22:42:36;16.97;;;8.67;;
8260;SDS011;64115;50.170;8.242;2022-12-17T22:45:20;11.97;;;8.23;;
8260;SDS011;64115;50.170;8.242;2022-12-17T22:47:48;16.97;;;9.17;;
8260;SDS011;64115;50.170;8.242;2022-12-17T22:50:15;17.27;;;9.83;;
8260;SDS011;64115;50.170;8.242;2022-12-17T22:52:42;14.23;;;8.60;;
8260;SDS011;64115;50.170;8.242;2022-12-17T22:55:09;13.90;;;9.00;;
8260;SDS011;64115;50.170;8.242;2022-12-17T22:57:38;15.90;;;8.70;;
8260;SDS011;64115;50.170;8.242;2022-12-17T23:00:07;13.23;;;8.77;;
8260;SDS011;64115;50.170;8.242;2022-12-17T23:02:45;17.13;;;9.50;;
8260;SDS011;64115;50.170;8.242;2022-12-17T23:05:13;14.77;;;8.30;;
8260;SDS011;64115;50.170;8.242;2022-12-17T23:07:40;16.90;;;9.40;;
8260;SDS011;64115;50.170;8.242;2022-12-17T23:10:07;17.23;;;10.03;;
8260;SDS011;64115;50.170;8.242;2022-12-17T23:12:34;13.30;;;8.87;;
8260;SDS011;64115;50.170;8.242;2022-12-17T23:15:16;15.87;;;9.17;;
8260;SDS011;64115;50.170;8.242;2022-12-17T23:17:44;11.93;;;8.10;;
8260;SDS011;64115;50.170;8.242;2022-12-17T23:20:13;18.70;;;9.53;;
8260;SDS011;64115;50.170;8.242;2022-12-17T23:22:40;16.80;;;9.83;;
8260;SDS011;64115;50.170;8.242;2022-12-17T23:25:07;17.23;;;9.17;;
8260;SDS011;64115;50.170;8.242;2022-12-17T23:27:35;18.20;;;9.03;;
8260;SDS011;64115;50.170;8.242;2022-12-17T23:30:03;15.97;;;9.13;;
8260;SDS011;64115;50.170;8.242;2022-12-17T23:32:33;14.10;;;8.20;;
8260;SDS011;64115;50.170;8.242;2022-12-17T23:35:00;15.43;;;8.70;;
8260;SDS011;64115;50.170;8.242;2022-12-17T23:37:28;15.67;;;9.10;;
8260;SDS011;64115;50.170;8.242;2022-12-17T23:39:55;16.10;;;8.83;;
8260;SDS011;64115;50.170;8.242;2022-12-17T23:42:22;15.70;;;9.03;;
8260;SDS011;64115;50.170;8.242;2022-12-17T23:44:49;13.80;;;7.70;;
8260;SDS011;64115;50.170;8.242;2022-12-17T23:47:16;12.57;;;8.00;;
8260;SDS011;64115;50.170;8.242;2022-12-17T23:49:42;13.23;;;7.87;;
8260;SDS011;64115;50.170;8.242;2022-12-17T23:52:09;15.00;;;8.50;;
8260;SDS011;64115;50.170;8.242;2022-12-17T23:54:37;14.77;;;8.73;;
8260;SDS011;64115;50.170;8.242;2022-12-17T23:57:04;13.57;;;8.27;;
8260;SDS011;64115;50.170;8.242;2022-12-17T23:59:31;14.80;;;9.00;;
